Aviation Digital Data Service (ADDS)

Output produced by TAFs form (1926 UTC 29 April 2017)
found at http://www.aviationweather.gov/adds/tafs/
 
TAF KDOV 291600Z 2916/3022 25012G18KT 9999 FEW012 QNH3004INS 
     BECMG 2922/2923 21006KT 9999 BKN040 QNH3005INS 
     BECMG 3013/3014 08012KT 9999 BKN020 QNH3012INS TX31/2917Z TN17/3014Z